Terminal Aerodrome Forecast
Issued by NWS

Home | Current Version | Previous Version | Text Only | Print | Product List | Glossary On
Versions: 1 2 3 4 5 6 7 8 9 10 11 12 13 14 15 16
829
FTUS43 KSGF 230520
TAFJLN
TAF
KJLN 230520Z 2306/2406 17010KT P6SM FEW250
     FM230900 17010KT P6SM VCTS BKN015CB
      TEMPO 2311/2315 4SM TSRA OVC008CB
     FM231700 19012G20KT P6SM VCTS OVC050CB
     FM240000 18012KT P6SM OVC050=

USA.gov is the U.S. government's official web portal to all federal, state and local government web resources and services.